Time;durP1;ratioP1;P1;durP2;ratioP2;P2;SDS_P1;SDS_P2;PMS_P1;PMS_P2;Temp;Humidity;BMP_temperature;BMP_pressure;BME280_temperature;BME280_humidity;BME280_pressure;Samples;Min_cycle;Max_cycle;Signal;HPM_P1;HPM_P2
2023/11/21 00:01:10;;;;;;;10.23;3.17;;;;;;;11.09;100.00;100776.41;5054590;28;20045;-68
2023/11/21 00:03:38;;;;;;;11.15;3.63;;;;;;;11.06;100.00;100777.06;5054375;28;20167;-68
2023/11/21 00:06:08;;;;;;;14.80;3.15;;;;;;;11.18;100.00;100780.03;5055205;28;20057;-68
2023/11/21 00:08:37;;;;;;;10.82;3.72;;;;;;;11.15;100.00;100777.09;5054388;28;20060;-69
2023/11/21 00:11:05;;;;;;;10.57;3.10;;;;;;;11.53;100.00;100763.66;5067485;28;20053;-70
2023/11/21 00:13:33;;;;;;;9.63;3.55;;;;;;;11.68;100.00;100766.81;5030732;28;20041;-67
2023/11/21 00:16:00;;;;;;;13.25;3.60;;;;;;;11.96;100.00;100761.88;5035878;28;20057;-67
2023/11/21 00:18:27;;;;;;;8.40;2.97;;;;;;;11.52;100.00;100776.66;5035148;28;20061;-68
2023/11/21 00:20:54;;;;;;;12.73;3.00;;;;;;;11.30;100.00;100769.22;5051045;28;20045;-68
2023/11/21 00:23:22;;;;;;;9.23;3.10;;;;;;;11.37;100.00;100767.97;5036412;28;20065;-69
2023/11/21 00:25:49;;;;;;;8.88;3.05;;;;;;;12.02;100.00;100769.69;5073367;28;20056;-67
2023/11/21 00:28:16;;;;;;;12.82;3.20;;;;;;;11.71;100.00;100777.25;5043656;28;20041;-68
2023/11/21 00:30:44;;;;;;;9.65;3.33;;;;;;;11.35;100.00;100779.31;5049173;28;20053;-68
2023/11/21 00:33:11;;;;;;;12.63;3.75;;;;;;;11.20;100.00;100782.47;5066018;28;20056;-68
2023/11/21 00:35:39;;;;;;;11.35;3.13;;;;;;;11.15;100.00;100777.09;5053720;28;20053;-68
2023/11/21 00:38:08;;;;;;;15.27;3.30;;;;;;;11.79;100.00;100765.41;5054689;28;20069;-67
2023/11/21 00:40:35;;;;;;;14.70;4.10;;;;;;;11.81;100.00;100776.13;5054475;28;20057;-67
2023/11/21 00:43:03;;;;;;;9.80;3.00;;;;;;;11.52;100.00;100779.41;5030813;28;20054;-67
2023/11/21 00:45:32;;;;;;;10.80;3.22;;;;;;;11.18;100.00;100777.28;5048826;28;20046;-67
2023/11/21 00:47:59;;;;;;;13.10;3.80;;;;;;;11.25;100.00;100772.13;5036558;28;20080;-68
2023/11/21 00:50:27;;;;;;;10.85;3.53;;;;;;;11.58;100.00;100763.50;5068500;28;20519;-67
2023/11/21 00:52:56;;;;;;;10.18;3.20;;;;;;;11.93;100.00;100762.50;5050863;28;20064;-66
2023/11/21 00:55:25;;;;;;;12.60;3.42;;;;;;;11.98;98.75;100762.34;5055186;28;20558;-67
2023/11/21 00:57:52;;;;;;;13.55;3.45;;;;;;;11.37;99.71;100773.50;5047675;28;20381;-67
2023/11/21 01:00:19;;;;;;;16.63;3.97;;;;;;;11.22;100.00;100771.94;5051881;28;20056;-67
2023/11/21 01:02:48;;;;;;;12.13;3.58;;;;;;;11.32;100.00;100768.91;5054310;28;20041;-68
2023/11/21 01:05:15;;;;;;;16.80;3.47;;;;;;;11.38;100.00;100771.22;5034063;28;20051;-67
2023/11/21 01:07:42;;;;;;;11.23;3.35;;;;;;;11.91;100.00;100764.78;5033975;28;20060;-67
2023/11/21 01:10:10;;;;;;;11.93;3.88;;;;;;;12.21;100.00;100766.63;5042873;28;20058;-67
2023/11/21 01:12:38;;;;;;;14.40;3.63;;;;;;;12.87;97.63;100763.38;5054486;28;20052;-67
2023/11/21 01:15:11;;;;;;;9.02;3.40;;;;;;;12.83;92.92;100770.69;5052909;28;20430;-67
2023/11/21 01:17:40;;;;;;;12.30;3.45;;;;;;;12.92;92.11;100770.69;5033273;28;20060;-67
2023/11/21 01:20:12;;;;;;;11.32;3.17;;;;;;;12.53;93.78;100779.16;5033888;28;20064;-67
2023/11/21 01:22:40;;;;;;;12.20;3.35;;;;;;;12.52;95.60;100774.78;5034266;28;20489;-67
2023/11/21 01:25:08;;;;;;;13.63;3.40;;;;;;;12.34;93.03;100782.25;5049945;28;20068;-68
2023/11/21 01:27:39;;;;;;;9.75;3.25;;;;;;;11.71;95.08;100788.28;4999561;28;20057;-68
2023/11/21 01:30:08;;;;;;;11.50;3.67;;;;;;;11.36;97.91;100789.22;5033508;28;20056;-68
2023/11/21 01:32:40;;;;;;;10.37;3.27;;;;;;;11.37;99.57;100793.59;5043758;28;20053;-69
2023/11/21 01:35:10;;;;;;;12.82;4.00;;;;;;;11.74;99.83;100784.88;5033419;28;20528;-67
2023/11/21 01:37:41;;;;;;;10.75;3.85;;;;;;;11.62;98.48;100794.84;5033771;28;20045;-68
2023/11/21 01:40:22;;;;;;;12.63;3.80;;;;;;;11.86;97.31;100796.09;5050937;28;20049;-67
2023/11/21 01:42:57;;;;;;;11.82;3.40;;;;;;;11.53;96.72;100802.25;5032894;28;20042;-67
2023/11/21 01:45:39;;;;;;;7.68;2.90;;;;;;;11.85;97.60;100796.44;5054590;28;20048;-67
2023/11/21 01:48:14;;;;;;;11.15;2.97;;;;;;;12.63;96.31;100799.00;5046456;28;20049;-68
2023/11/21 01:50:48;;;;;;;12.45;3.15;;;;;;;12.98;92.82;100799.78;5051212;28;20052;-69
2023/11/21 01:53:17;;;;;;;13.10;3.15;;;;;;;12.53;92.51;100804.84;5058101;28;20046;-67
2023/11/21 01:55:45;;;;;;;10.52;3.15;;;;;;;12.16;92.17;100806.25;5047012;28;20418;-68
2023/11/21 01:58:12;;;;;;;11.13;3.10;;;;;;;12.36;95.38;100813.13;5058026;28;20057;-67
2023/11/21 02:00:40;;;;;;;8.73;2.90;;;;;;;13.12;92.78;100804.03;5042807;28;20045;-67
2023/11/21 02:03:07;;;;;;;9.23;3.22;;;;;;;12.32;91.28;100806.63;5018602;28;20049;-66
2023/11/21 02:05:34;;;;;;;10.98;3.42;;;;;;;12.40;92.70;100808.56;5053691;28;20064;-67
2023/11/21 02:08:03;;;;;;;14.68;3.08;;;;;;;12.76;93.30;100811.03;5051775;28;20049;-68
2023/11/21 02:10:32;;;;;;;14.02;4.10;;;;;;;12.63;92.61;100810.06;5052254;28;20060;-68
2023/11/21 02:13:02;;;;;;;11.80;3.75;;;;;;;12.92;92.38;100801.91;5050555;28;20048;-67
2023/11/21 02:15:33;;;;;;;9.52;3.00;;;;;;;13.48;90.24;100809.13;5051920;28;20060;-69
2023/11/21 02:18:05;;;;;;;10.80;3.17;;;;;;;12.90;91.22;100798.66;5036427;28;20041;-69
2023/11/21 02:21:10;;;;;;;9.13;2.92;;;;;;;13.19;90.43;100803.53;5052855;28;20033;-68
2023/11/21 02:23:49;;;;;;;;;;;;;;;13.05;87.99;100812.03;5021759;28;20037;-69
2023/11/21 02:26:17;;;;;;;11.02;3.22;;;;;;;12.91;89.24;100805.00;5044076;28;20349;-67
2023/11/21 02:28:45;;;;;;;9.55;2.95;;;;;;;13.32;90.20;100806.09;5032032;28;20041;-67
2023/11/21 02:31:13;;;;;;;11.73;3.05;;;;;;;13.83;86.66;100809.81;5029932;28;20045;-67
2023/11/21 02:33:41;;;;;;;10.18;3.20;;;;;;;12.61;89.55;100805.97;5052554;28;20052;-67
2023/11/21 02:36:09;;;;;;;11.40;3.85;;;;;;;12.91;92.32;100811.34;5060430;28;20053;-68
2023/11/21 02:38:36;;;;;;;10.73;3.35;;;;;;;12.55;90.76;100818.34;5054311;28;20041;-68
2023/11/21 02:41:04;;;;;;;11.60;3.42;;;;;;;13.45;89.99;100821.69;5039159;28;20049;-66
2023/11/21 02:43:32;;;;;;;9.00;2.63;;;;;;;12.79;88.34;100816.72;5055755;28;20041;-68
2023/11/21 02:46:00;;;;;;;12.13;2.78;;;;;;;13.21;90.27;100821.44;5056400;28;20053;-68
2023/11/21 02:48:27;;;;;;;18.13;3.95;;;;;;;12.48;91.31;100821.59;5055458;28;20515;-68
2023/11/21 02:50:54;;;;;;;12.45;3.75;;;;;;;13.03;92.12;100825.34;5055609;28;20637;-68
2023/11/21 02:53:21;;;;;;;16.02;3.10;;;;;;;13.19;90.00;100815.41;5056810;28;20053;-67
2023/11/21 02:55:48;;;;;;;13.77;3.10;;;;;;;12.50;88.25;100826.78;5051270;28;20060;-68
2023/11/21 02:58:16;;;;;;;10.10;3.40;;;;;;;11.92;92.50;100827.13;5055425;28;20052;-68
2023/11/21 03:00:43;;;;;;;8.27;3.20;;;;;;;11.56;96.28;100826.47;5055122;28;20049;-67
2023/11/21 03:03:10;;;;;;;9.82;3.13;;;;;;;11.56;97.19;100824.50;5038302;28;20053;-67
2023/11/21 03:05:38;;;;;;;9.05;3.08;;;;;;;11.84;97.28;100837.00;5055822;28;20087;-67
2023/11/21 03:08:07;;;;;;;12.02;3.17;;;;;;;12.62;98.37;100826.97;5055418;28;20489;-67
2023/11/21 03:10:34;;;;;;;14.90;3.25;;;;;;;12.25;92.63;100814.56;5055275;28;20045;-67
2023/11/21 03:13:01;;;;;;;13.15;3.17;;;;;;;12.41;92.57;100818.50;5045352;28;20063;-66
2023/11/21 03:15:28;;;;;;;9.50;2.80;;;;;;;11.87;94.97;100825.31;5055228;28;20056;-67
2023/11/21 03:17:57;;;;;;;10.93;3.00;;;;;;;12.47;96.53;100817.19;5054581;28;20060;-67
2023/11/21 03:20:25;;;;;;;11.05;2.90;;;;;;;12.14;94.35;100827.03;5054210;28;20072;-67
2023/11/21 03:22:52;;;;;;;7.75;2.80;;;;;;;12.06;94.72;100816.78;5054729;28;20049;-67
2023/11/21 03:25:20;;;;;;;11.10;3.40;;;;;;;11.50;97.06;100831.31;5059917;28;20155;-67
2023/11/21 03:27:47;;;;;;;10.40;3.47;;;;;;;11.60;100.00;100830.22;5047826;28;20052;-67
2023/11/21 03:30:15;;;;;;;11.23;3.30;;;;;;;12.15;99.63;100836.97;5065682;28;20061;-68
2023/11/21 03:32:42;;;;;;;11.63;3.63;;;;;;;11.48;97.89;100839.09;5056406;28;20371;-67
2023/11/21 03:35:09;;;;;;;10.75;3.40;;;;;;;11.44;100.00;100835.31;5056059;28;20048;-67
2023/11/21 03:37:41;;;;;;;13.02;3.25;;;;;;;12.11;100.00;100834.03;5054488;28;20075;-67
2023/11/21 03:40:10;;;;;;;10.07;3.40;;;;;;;12.85;96.83;100842.25;5054952;28;20576;-67
2023/11/21 03:42:37;;;;;;;10.23;3.58;;;;;;;12.44;94.56;100835.25;5054494;28;20060;-68
2023/11/21 03:45:05;;;;;;;8.07;3.10;;;;;;;13.14;93.82;100832.19;5052855;28;20075;-67
2023/11/21 03:47:32;;;;;;;9.48;3.05;;;;;;;13.40;90.59;100838.47;5055520;28;20048;-66
2023/11/21 03:50:00;;;;;;;10.90;3.20;;;;;;;13.65;89.84;100835.97;5052566;28;20037;-68
2023/11/21 03:52:28;;;;;;;10.95;4.15;;;;;;;13.94;87.14;100834.06;5049828;28;20049;-67
2023/11/21 03:54:55;;;;;;;9.70;3.25;;;;;;;14.03;86.42;100837.59;5048015;28;20404;-67
2023/11/21 03:57:23;;;;;;;8.52;3.22;;;;;;;14.13;85.38;100839.16;5045979;28;20041;-68
2023/11/21 03:59:50;;;;;;;8.30;3.30;;;;;;;14.09;84.93;100844.56;5052338;28;20045;-68
2023/11/21 04:02:17;;;;;;;11.95;3.65;;;;;;;13.62;86.96;100842.97;5062396;28;20041;-67
2023/11/21 04:04:44;;;;;;;9.32;3.50;;;;;;;13.15;86.22;100839.31;5048497;28;20388;-67
2023/11/21 04:07:13;;;;;;;11.45;3.58;;;;;;;12.40;92.49;100839.78;5054941;28;20049;-69
2023/11/21 04:09:41;;;;;;;11.23;3.25;;;;;;;12.53;91.34;100851.00;5055329;28;20057;-67
2023/11/21 04:12:11;;;;;;;10.77;3.47;;;;;;;12.54;95.47;100849.84;5055662;28;20072;-68
2023/11/21 04:14:39;;;;;;;10.45;3.83;;;;;;;12.59;93.82;100844.19;5054795;28;20056;-67
2023/11/21 04:17:06;;;;;;;11.25;3.78;;;;;;;12.79;94.10;100855.44;5055735;28;20052;-68
2023/11/21 04:19:33;;;;;;;10.60;3.65;;;;;;;13.38;91.88;100862.06;5033654;28;20544;-67
2023/11/21 04:22:01;;;;;;;9.18;3.30;;;;;;;13.49;90.35;100878.00;5053763;28;20041;-67
2023/11/21 04:24:28;;;;;;;9.18;3.72;;;;;;;12.89;89.78;100877.22;5054048;28;20041;-67
2023/11/21 04:26:55;;;;;;;11.30;3.92;;;;;;;12.63;92.27;100878.31;5054762;28;20182;-67
2023/11/21 04:29:22;;;;;;;11.00;3.92;;;;;;;12.38;93.88;100879.88;5054996;28;20052;-67
2023/11/21 04:31:49;;;;;;;12.45;4.65;;;;;;;12.91;94.81;100883.22;5054054;28;20063;-67
2023/11/21 04:34:17;;;;;;;9.88;3.50;;;;;;;12.53;92.30;100884.97;5055435;28;20057;-67
2023/11/21 04:36:44;;;;;;;11.13;3.90;;;;;;;12.50;97.92;100891.13;5048651;28;20041;-67
2023/11/21 04:39:11;;;;;;;15.60;4.20;;;;;;;12.41;96.16;100882.03;5053210;28;20059;-67
2023/11/21 04:41:42;;;;;;;17.75;4.00;;;;;;;13.12;95.33;100880.66;5041766;28;20600;-66
2023/11/21 04:44:10;;;;;;;12.13;4.05;;;;;;;13.13;92.75;100880.31;5044769;28;20048;-67
2023/11/21 04:46:37;;;;;;;10.75;3.90;;;;;;;12.91;93.67;100883.22;5059378;28;20045;-68
2023/11/21 04:49:04;;;;;;;15.18;4.60;;;;;;;12.74;95.73;100880.47;5031682;28;20061;-67
2023/11/21 04:51:32;;;;;;;9.70;4.70;;;;;;;13.31;94.18;100875.59;5048622;28;20049;-68
2023/11/21 04:53:59;;;;;;;13.35;4.82;;;;;;;13.36;92.63;100879.00;5032088;28;20056;-67
2023/11/21 04:56:26;;;;;;;12.48;5.13;;;;;;;13.10;93.17;100878.22;5046601;28;20052;-67
2023/11/21 04:58:54;;;;;;;15.65;5.18;;;;;;;12.91;95.15;100880.47;5033174;28;20595;-68
2023/11/21 05:01:21;;;;;;;13.07;5.90;;;;;;;12.59;94.31;100885.66;5052339;28;20063;-67
2023/11/21 05:03:49;;;;;;;13.10;5.88;;;;;;;12.61;98.83;100883.34;5052699;28;20052;-68
2023/11/21 05:06:16;;;;;;;12.00;5.75;;;;;;;13.24;96.23;100886.34;5049947;28;20044;-67
2023/11/21 05:08:43;;;;;;;13.00;5.95;;;;;;;12.95;95.21;100889.75;5054159;28;20078;-68
2023/11/21 05:11:10;;;;;;;11.32;4.82;;;;;;;12.48;96.73;100896.97;5051711;28;20128;-68
2023/11/21 05:13:38;;;;;;;9.13;5.00;;;;;;;12.97;98.62;100900.47;5038530;28;20053;-66
2023/11/21 05:16:07;;;;;;;11.68;5.00;;;;;;;12.41;98.17;100901.38;5054153;28;20051;-68
2023/11/21 05:18:34;;;;;;;9.95;4.90;;;;;;;12.12;99.13;100899.16;5054025;28;20065;-67
2023/11/21 05:21:02;;;;;;;10.43;4.72;;;;;;;12.70;100.00;100892.47;5036385;28;20076;-67
2023/11/21 05:23:29;;;;;;;9.15;4.88;;;;;;;12.75;98.48;100895.91;5044420;28;20067;-67
2023/11/21 05:25:57;;;;;;;8.20;4.80;;;;;;;12.86;98.17;100891.69;5048880;28;20045;-67
2023/11/21 05:28:24;;;;;;;10.50;4.93;;;;;;;12.05;100.00;100909.03;5048310;28;20056;-66
2023/11/21 05:30:51;;;;;;;8.32;4.90;;;;;;;11.62;100.00;100919.00;5051478;28;20392;-67
2023/11/21 05:33:33;;;;;;;10.45;4.68;;;;;;;12.82;100.00;100915.59;5056646;28;20053;-67
2023/11/21 05:36:00;;;;;;;7.45;4.32;;;;;;;12.70;100.00;100901.59;5051127;28;20115;-67
2023/11/21 05:38:29;;;;;;;7.00;4.25;;;;;;;13.04;98.61;100909.94;5053577;28;20049;-66
2023/11/21 05:40:58;;;;;;;7.55;4.70;;;;;;;12.01;99.72;100913.56;5053262;28;20049;-67
2023/11/21 05:43:25;;;;;;;10.20;5.57;;;;;;;11.80;100.00;100924.31;5053040;28;20052;-67
2023/11/21 05:45:53;;;;;;;8.15;5.35;;;;;;;12.22;100.00;100931.22;5061582;28;20427;-67
2023/11/21 05:48:20;;;;;;;9.98;5.55;;;;;;;11.91;100.00;100933.16;5035050;28;20041;-68
2023/11/21 05:50:49;;;;;;;9.27;4.90;;;;;;;12.35;100.00;100933.03;5051621;28;20059;-67
2023/11/21 05:53:16;;;;;;;11.95;5.50;;;;;;;12.15;100.00;100928.88;5052290;28;20132;-67
2023/11/21 05:55:44;;;;;;;6.53;4.97;;;;;;;11.99;100.00;100927.69;5052099;28;20053;-68
2023/11/21 05:58:11;;;;;;;8.82;5.25;;;;;;;12.10;100.00;100934.56;5056649;28;20053;-67
2023/11/21 06:00:39;;;;;;;6.57;4.15;;;;;;;11.66;100.00;100936.59;5049400;28;20064;-68
2023/11/21 06:03:07;;;;;;;7.47;4.85;;;;;;;11.72;100.00;100932.56;5051510;28;20048;-67
2023/11/21 06:05:35;;;;;;;6.78;4.07;;;;;;;11.55;100.00;100948.97;5012274;28;20052;-67
2023/11/21 06:08:02;;;;;;;5.72;3.70;;;;;;;11.84;100.00;100944.66;5047996;28;20044;-67
2023/11/21 06:10:30;;;;;;;8.93;4.05;;;;;;;12.00;100.00;100945.88;5051439;28;20052;-68
2023/11/21 06:12:57;;;;;;;6.05;3.88;;;;;;;11.58;100.00;100942.81;5054689;28;20525;-66
2023/11/21 06:15:29;;;;;;;9.65;4.25;;;;;;;11.38;100.00;100946.09;5046224;28;20060;-69
2023/11/21 06:17:57;;;;;;;10.00;4.10;;;;;;;11.76;100.00;100944.59;5050301;28;20516;-67
2023/11/21 06:20:24;;;;;;;8.40;4.10;;;;;;;12.23;100.00;100941.09;5050205;28;20045;-68
2023/11/21 06:22:51;;;;;;;8.30;4.80;;;;;;;12.11;100.00;100950.00;5051048;28;20041;-68
2023/11/21 06:25:19;;;;;;;6.70;4.70;;;;;;;12.67;100.00;100959.44;5052360;28;20045;-68
2023/11/21 06:27:48;;;;;;;6.80;4.47;;;;;;;12.60;100.00;100959.94;5034973;28;20076;-67
2023/11/21 06:30:16;;;;;;;10.38;4.47;;;;;;;12.30;100.00;100955.28;5052394;28;20468;-68
2023/11/21 06:32:46;;;;;;;7.80;4.53;;;;;;;12.05;100.00;100958.72;5051969;28;20057;-68
2023/11/21 06:35:15;;;;;;;6.90;4.10;;;;;;;13.14;100.00;100956.66;5052280;28;20120;-69
2023/11/21 06:37:50;;;;;;;6.00;3.33;;;;;;;13.05;100.00;100955.81;5053000;28;20068;-67
2023/11/21 06:40:19;;;;;;;6.78;4.07;;;;;;;12.75;100.00;100964.19;5052538;28;21419;-67
2023/11/21 06:42:47;;;;;;;6.88;4.35;;;;;;;12.74;100.00;100963.38;5051169;28;20702;-67
2023/11/21 06:45:15;;;;;;;8.50;4.20;;;;;;;12.61;100.00;100961.53;5046034;28;20041;-67
2023/11/21 06:47:43;;;;;;;7.50;4.65;;;;;;;11.82;100.00;100966.22;5052906;28;20045;-67
2023/11/21 06:50:11;;;;;;;7.05;4.70;;;;;;;11.86;100.00;100963.66;5052696;28;20493;-66
2023/11/21 06:52:38;;;;;;;6.65;4.10;;;;;;;11.65;100.00;100965.28;5052487;28;20056;-67
2023/11/21 06:55:08;;;;;;;9.68;5.38;;;;;;;11.28;100.00;100969.19;5051521;28;20049;-66
2023/11/21 06:57:36;;;;;;;8.73;4.97;;;;;;;11.22;100.00;100976.81;5035007;28;20047;-69
2023/11/21 07:00:04;;;;;;;8.90;6.07;;;;;;;11.17;100.00;100976.09;5050543;28;20049;-68
2023/11/21 07:02:31;;;;;;;8.68;5.93;;;;;;;11.50;100.00;100977.50;5049946;28;20045;-67
2023/11/21 07:04:59;;;;;;;10.20;7.63;;;;;;;11.12;100.00;100984.50;5053120;28;20037;-67
2023/11/21 07:07:27;;;;;;;10.93;8.15;;;;;;;11.13;100.00;100986.13;5019393;28;20064;-69
2023/11/21 07:09:55;;;;;;;11.55;7.70;;;;;;;11.62;100.00;100988.78;5048659;28;20057;-67
2023/11/21 07:12:23;;;;;;;9.23;7.43;;;;;;;11.77;100.00;100990.41;5051159;28;20055;-68
2023/11/21 07:14:51;;;;;;;10.50;8.27;;;;;;;11.28;100.00;100992.09;5042985;28;20065;-68
2023/11/21 07:17:19;;;;;;;12.88;8.90;;;;;;;11.23;100.00;100999.66;5043053;28;20045;-67
2023/11/21 07:19:46;;;;;;;14.18;9.65;;;;;;;11.11;100.00;101002.97;5051719;28;20052;-67
2023/11/21 07:22:13;;;;;;;14.20;9.27;;;;;;;11.00;100.00;101012.56;5052704;28;20040;-66
2023/11/21 07:24:42;;;;;;;13.30;10.40;;;;;;;10.82;100.00;101019.06;5052087;28;20396;-67
2023/11/21 07:27:10;;;;;;;14.00;9.43;;;;;;;10.90;100.00;101025.75;5056527;28;20148;-67
2023/11/21 07:29:37;;;;;;;13.65;11.10;;;;;;;10.92;100.00;101023.50;5063628;28;20723;-67
2023/11/21 07:32:05;;;;;;;14.23;10.80;;;;;;;10.86;100.00;101030.28;5055068;28;20045;-66
2023/11/21 07:34:32;;;;;;;14.65;10.85;;;;;;;10.78;100.00;101029.03;5056465;28;20052;-67
2023/11/21 07:37:00;;;;;;;16.65;10.90;;;;;;;10.85;100.00;101031.38;5056117;28;20045;-68
2023/11/21 07:39:27;;;;;;;13.05;9.40;;;;;;;11.34;100.00;101028.63;5056319;28;20666;-69
2023/11/21 07:41:55;;;;;;;14.02;10.70;;;;;;;11.67;100.00;101032.03;5055908;28;20046;-67
2023/11/21 07:44:22;;;;;;;14.02;10.00;;;;;;;11.44;100.00;101030.38;5057572;28;20040;-67
2023/11/21 07:46:50;;;;;;;15.70;11.27;;;;;;;11.05;100.00;101042.00;5049032;28;20809;-67
2023/11/21 07:49:20;;;;;;;15.50;10.77;;;;;;;11.36;100.00;101040.19;5047436;28;20057;-68
2023/11/21 07:51:48;;;;;;;14.30;11.35;;;;;;;12.10;100.00;101038.69;5044880;28;20539;-67
2023/11/21 07:54:15;;;;;;;15.38;11.73;;;;;;;11.63;100.00;101048.34;5056036;28;20058;-67
2023/11/21 07:56:43;;;;;;;15.52;11.85;;;;;;;11.22;100.00;101058.69;5048275;28;20424;-66
2023/11/21 07:59:10;;;;;;;13.10;10.30;;;;;;;12.09;100.00;101048.91;5060534;28;20480;-69
2023/11/21 08:01:40;;;;;;;13.88;10.48;;;;;;;12.08;100.00;101052.78;5052114;28;20083;-66
2023/11/21 08:04:10;;;;;;;13.02;10.32;;;;;;;11.64;100.00;101050.03;5017469;28;20065;-65
2023/11/21 08:06:38;;;;;;;18.25;11.07;;;;;;;11.17;100.00;101053.31;5054029;28;20064;-68
2023/11/21 08:09:08;;;;;;;15.82;11.60;;;;;;;11.42;100.00;101057.44;5055098;28;20072;-66
2023/11/21 08:11:38;;;;;;;15.00;11.23;;;;;;;11.70;100.00;101062.56;5048338;28;20041;-67
2023/11/21 08:14:09;;;;;;;14.82;9.88;;;;;;;12.74;100.00;101064.84;5049135;28;20045;-66
2023/11/21 08:16:37;;;;;;;17.35;10.85;;;;;;;12.20;100.00;101068.78;5052641;28;20045;-67
2023/11/21 08:19:09;;;;;;;15.60;11.38;;;;;;;11.60;100.00;101071.06;5054391;28;20052;-68
2023/11/21 08:21:39;;;;;;;17.95;12.95;;;;;;;11.15;100.00;101086.69;5050767;28;20419;-66
2023/11/21 08:24:10;;;;;;;18.27;12.52;;;;;;;11.33;100.00;101074.69;5052827;28;20041;-66
2023/11/21 08:26:38;;;;;;;19.00;12.57;;;;;;;11.40;100.00;101079.81;5015029;28;20504;-67
2023/11/21 08:29:06;;;;;;;17.92;13.35;;;;;;;11.23;100.00;101083.19;5050708;28;20358;-66
2023/11/21 08:31:34;;;;;;;17.45;13.02;;;;;;;11.03;100.00;101091.09;5049762;28;20079;-66
2023/11/21 08:34:02;;;;;;;21.60;14.18;;;;;;;11.00;100.00;101088.97;5043764;28;20053;-67
2023/11/21 08:36:31;;;;;;;20.17;13.60;;;;;;;11.03;100.00;101091.91;5045490;28;20408;-68
2023/11/21 08:38:59;;;;;;;22.63;14.77;;;;;;;11.41;100.00;101086.94;5052373;28;20052;-68
2023/11/21 08:41:27;;;;;;;19.35;13.75;;;;;;;11.27;100.00;101103.53;5041721;28;20057;-67
2023/11/21 08:43:55;;;;;;;19.73;13.18;;;;;;;11.61;100.00;101092.00;5029977;28;20055;-67
2023/11/21 08:46:25;;;;;;;19.13;12.93;;;;;;;11.65;100.00;101095.81;5047132;28;20061;-67
2023/11/21 08:48:53;;;;;;;18.23;12.90;;;;;;;11.50;100.00;101098.06;5048023;28;20049;-68
2023/11/21 08:51:20;;;;;;;18.88;12.95;;;;;;;11.55;100.00;101098.78;5053099;28;20053;-67
2023/11/21 08:53:47;;;;;;;18.98;14.07;;;;;;;11.44;100.00;101091.84;5051708;28;20054;-66
2023/11/21 08:56:15;;;;;;;19.85;13.40;;;;;;;11.47;100.00;101098.69;5048743;28;20053;-67
2023/11/21 08:58:42;;;;;;;19.83;13.40;;;;;;;11.31;100.00;101112.00;5048326;28;20123;-66
2023/11/21 09:01:09;;;;;;;18.17;12.20;;;;;;;11.19;100.00;101111.72;5048209;28;20064;-66
2023/11/21 09:03:37;;;;;;;18.40;13.25;;;;;;;11.38;100.00;101121.47;5047884;28;20041;-67
2023/11/21 09:06:05;;;;;;;19.23;12.68;;;;;;;11.46;100.00;101125.44;5047131;28;20045;-66
2023/11/21 09:08:32;;;;;;;15.68;11.73;;;;;;;11.75;100.00;101122.38;5046674;28;20159;-67
2023/11/21 09:10:59;;;;;;;17.33;12.35;;;;;;;11.48;100.00;101130.66;5050832;28;20056;-66
2023/11/21 09:13:27;;;;;;;20.67;12.05;;;;;;;11.62;100.00;101121.22;5044469;28;20060;-68
2023/11/21 09:15:54;;;;;;;20.05;12.35;;;;;;;11.68;100.00;101128.28;5033260;28;20255;-68
2023/11/21 09:18:22;;;;;;;17.33;12.25;;;;;;;11.92;100.00;101120.56;5050718;28;20044;-67
2023/11/21 09:20:49;;;;;;;16.17;10.70;;;;;;;11.82;100.00;101120.00;5049531;28;20051;-67
2023/11/21 09:23:16;;;;;;;17.02;11.60;;;;;;;11.60;100.00;101125.41;5049890;28;20528;-67
2023/11/21 09:25:46;;;;;;;14.07;10.73;;;;;;;11.58;100.00;101131.25;5049756;28;20044;-68
2023/11/21 09:28:14;;;;;;;18.73;11.30;;;;;;;11.42;100.00;101138.22;5050523;28;20045;-67
2023/11/21 09:30:41;;;;;;;15.05;10.15;;;;;;;11.38;100.00;101137.22;5046248;28;20045;-67
2023/11/21 09:33:10;;;;;;;15.85;10.05;;;;;;;11.53;100.00;101147.09;5050871;28;20057;-67
2023/11/21 09:35:38;;;;;;;15.63;9.10;;;;;;;11.52;100.00;101134.44;5046302;28;20056;-67
2023/11/21 09:38:09;;;;;;;14.40;9.40;;;;;;;11.37;100.00;101135.56;5047929;28;20041;-68
2023/11/21 09:40:37;;;;;;;13.30;8.80;;;;;;;11.33;100.00;101145.59;5049576;28;20048;-67
2023/11/21 09:43:15;;;;;;;17.30;9.68;;;;;;;11.36;100.00;101150.50;5026497;28;20049;-68
2023/11/21 09:45:47;;;;;;;12.57;9.07;;;;;;;11.48;100.00;101141.69;5049656;28;20511;-67
2023/11/21 09:48:16;;;;;;;11.63;8.43;;;;;;;11.50;100.00;101154.06;5040938;28;20061;-68
2023/11/21 09:50:43;;;;;;;12.98;8.40;;;;;;;11.62;100.00;101150.75;5052122;28;20060;-67
2023/11/21 09:53:20;;;;;;;10.68;7.78;;;;;;;11.88;100.00;101149.09;5049612;28;20048;-67
2023/11/21 09:55:52;;;;;;;12.23;7.85;;;;;;;11.93;100.00;101163.59;5032962;28;20057;-67
2023/11/21 09:58:21;;;;;;;13.20;8.75;;;;;;;11.84;100.00;101157.19;5045869;28;20063;-66
2023/11/21 10:00:49;;;;;;;9.75;7.05;;;;;;;11.99;100.00;101159.59;5033327;28;20049;-67
2023/11/21 10:03:16;;;;;;;11.27;7.53;;;;;;;12.22;100.00;101165.97;5044851;28;20048;-68
2023/11/21 10:05:48;;;;;;;10.38;7.30;;;;;;;11.91;100.00;101173.31;5053496;28;20057;-66
2023/11/21 10:08:15;;;;;;;10.65;7.10;;;;;;;11.76;100.00;101168.13;5048298;28;20045;-67
2023/11/21 10:10:45;;;;;;;14.02;7.35;;;;;;;12.20;100.00;101182.81;5048262;28;20148;-66
2023/11/21 10:13:16;;;;;;;11.20;6.85;;;;;;;12.09;100.00;101181.44;5026411;28;20049;-66
2023/11/21 10:15:48;;;;;;;10.48;7.03;;;;;;;11.64;100.00;101187.13;5038500;28;20045;-68
2023/11/21 10:18:16;;;;;;;13.43;7.95;;;;;;;11.63;100.00;101199.31;5048824;28;20045;-67
2023/11/21 10:20:46;;;;;;;11.15;7.82;;;;;;;11.53;100.00;101200.34;5041751;28;20073;-66
2023/11/21 10:23:15;;;;;;;14.88;8.13;;;;;;;11.56;100.00;101204.44;5047975;28;20376;-67
2023/11/21 10:25:43;;;;;;;10.50;6.77;;;;;;;11.67;100.00;101208.63;5052390;28;20045;-67
2023/11/21 10:28:10;;;;;;;11.77;6.90;;;;;;;11.73;100.00;101211.00;5052372;28;20056;-67
2023/11/21 10:30:38;;;;;;;13.00;7.80;;;;;;;11.59;100.00;101214.84;5051680;28;20059;-67
2023/11/21 10:33:06;;;;;;;12.63;8.50;;;;;;;11.64;100.00;101217.50;5049343;28;20049;-67
2023/11/21 10:35:50;;;;;;;10.75;7.50;;;;;;;11.78;100.00;101218.31;5055130;28;20049;-68
2023/11/21 10:38:20;;;;;;;10.45;7.47;;;;;;;11.52;100.00;101214.44;5062038;28;20045;-68
2023/11/21 10:40:49;;;;;;;11.88;7.28;;;;;;;11.51;100.00;101213.63;5025033;28;20060;-67
2023/11/21 10:43:18;;;;;;;14.23;7.20;;;;;;;11.48;100.00;101216.16;5043488;28;20057;-67
2023/11/21 10:45:45;;;;;;;13.50;8.05;;;;;;;11.81;100.00;101214.94;5060334;28;20036;-67
2023/11/21 10:48:17;;;;;;;11.02;6.80;;;;;;;11.71;100.00;101217.94;5048915;28;20051;-67
2023/11/21 10:50:47;;;;;;;10.60;6.97;;;;;;;11.74;100.00;101223.66;5045756;28;20060;-68
2023/11/21 10:53:14;;;;;;;9.88;5.75;;;;;;;11.65;100.00;101224.66;5038531;28;20053;-67
2023/11/21 10:55:44;;;;;;;8.68;5.80;;;;;;;12.23;100.00;101215.34;5050321;28;20543;-69
2023/11/21 10:58:13;;;;;;;9.38;5.78;;;;;;;12.36;100.00;101225.50;5047937;28;20380;-68
2023/11/21 11:00:41;;;;;;;12.13;5.15;;;;;;;13.06;100.00;101225.69;5037265;28;20755;-69
2023/11/21 11:03:14;;;;;;;9.07;4.95;;;;;;;12.90;100.00;101227.19;5054948;28;20408;-68
2023/11/21 11:05:51;;;;;;;10.18;4.20;;;;;;;12.16;100.00;101230.72;5053062;28;20436;-68
2023/11/21 11:08:25;;;;;;;6.38;3.63;;;;;;;12.14;100.00;101221.91;5052034;28;20048;-67
2023/11/21 11:10:53;;;;;;;5.72;3.13;;;;;;;12.23;100.00;101236.63;5053926;28;20053;-69
2023/11/21 11:13:21;;;;;;;3.40;2.28;;;;;;;12.39;100.00;101230.44;5048908;28;20866;-69
2023/11/21 11:15:48;;;;;;;5.20;3.45;;;;;;;12.93;100.00;101229.34;5050927;28;20045;-69
2023/11/21 11:18:16;;;;;;;6.43;2.85;;;;;;;12.81;100.00;101226.34;5047939;28;20045;-69
2023/11/21 11:20:45;;;;;;;6.53;3.00;;;;;;;12.55;100.00;101222.59;5056520;28;20049;-69